^^
Station Historical Data
 
Daily Summary for April 25, 2017 Units:  English    Metric   Both
« Previous Day
Next Day »
Daily Weekly Monthly Yearly Custom
  Current: High: Low: Average:
Temperature: 69.8 °F 69.8 °F 48.9 °F 53.8 °F
Dew Point: 55.8 °F 55.8 °F 36.1 °F 42.6 °F
Humidity: 61% 75% 55% 66%
Wind Speed: 4.6mph 11.5mph 0mph 4.8mph
Wind Gust: 4.6mph 11.5mph - -
WindESE - - SE
Pressure: 29.6 in 29.8 in 29.6 in -
Precipitation: 0 in      
Historical Graphs
 
 
Tabular Data for April 25, 2017
Time Temperature Dew Point Pressure Wind Wind Speed Wind Gust Humidity Rainfall Rate (Hourly) solar Conditions
00:00 48.9 °F 37.8 °F 29.7 in ENE 8.1 mph 8.1 mph 65% 0 in WeatherDisplay:10.37 W/m2 CLR
00:05 49.6 °F 37.6 °F 29.7 in SE 3.5 mph 3.8 mph 63% 0 in WeatherDisplay:10.37 W/m2 CLR
00:10 50 °F 36.7 °F 29.7 in ESE 6.9 mph 6.9 mph 60% 0 in WeatherDisplay:10.37 W/m2 CLR
00:15 50 °F 36.1 °F 29.7 in ESE 4 mph 4 mph 59% 0 in WeatherDisplay:10.37 W/m2 CLR
00:20 50 °F 36.1 °F 29.7 in ESE 5.8 mph 5.8 mph 59% 0 in WeatherDisplay:10.37 W/m2 CLR
00:25 50 °F 36.7 °F 29.7 in South 3.5 mph 3.5 mph 60% 0 in WeatherDisplay:10.37 W/m2 CLR
00:30 50 °F 36.7 °F 29.7 in East 3.5 mph 3.5 mph 60% 0 in WeatherDisplay:10.37 W/m2 CLR
00:35 50 °F 36.7 °F 29.7 in Calm   1.1 mph 60% 0 in WeatherDisplay:10.37 W/m2 CLR
00:40 50 °F 36.7 °F 29.7 in ESE 4 mph 4 mph 60% 0 in WeatherDisplay:10.37 W/m2 CLR
00:45 50 °F 37 °F 29.7 in NNE 4.9 mph 4.9 mph 61% 0 in WeatherDisplay:10.37 W/m2 CLR
00:50 50 °F 37 °F 29.7 in WNW 4 mph 4 mph 61% 0 in WeatherDisplay:10.37 W/m2 CLR
00:55 50 °F 37 °F 29.8 in West 6 mph 6 mph 61% 0 in WeatherDisplay:10.37 W/m2 CLR
01:00 51.8 °F 39.6 °F 29.8 in ESE 2.3 mph 2.5 mph 63% 0 in WeatherDisplay:10.37 W/m2 CLR
01:05 51.8 °F 37.9 °F 29.7 in SSE 2.3 mph 2.3 mph 59% 0 in WeatherDisplay:10.37 W/m2 FEW
01:10 51.8 °F 37.9 °F 29.8 in SSW 4 mph 4 mph 59% 0 in WeatherDisplay:10.37 W/m2 FEW
01:15 51.8 °F 37.6 °F 29.8 in South 3.5 mph 3.5 mph 58% 0 in WeatherDisplay:10.37 W/m2 FEW
01:20 51.8 °F 37.6 °F 29.8 in Calm   1.8 mph 58% 0 in WeatherDisplay:10.37 W/m2 FEW
01:25 51.8 °F 37.6 °F 29.8 in SSW 1 mph 2 mph 58% 0 in WeatherDisplay:10.37 W/m2 FEW
01:30 51.8 °F 37.6 °F 29.8 in Calm   1 mph 58% 0 in WeatherDisplay:10.37 W/m2 FEW
01:35 51.8 °F 37.6 °F 29.7 in East 2.3 mph 2.3 mph 58% 0 in WeatherDisplay:10.37 W/m2 FEW
01:39 51.8 °F 36.7 °F 29.7 in ENE 4.6 mph 4.6 mph 56% 0 in WeatherDisplay:10.37 W/m2 FEW
01:45 51.8 °F 36.1 °F 29.7 in NE 3.5 mph 3.5 mph 55% 0 in WeatherDisplay:10.37 W/m2 FEW
01:50 51.8 °F 36.7 °F 29.7 in SSW 2.3 mph 2.3 mph 56% 0 in WeatherDisplay:10.37 W/m2 FEW
01:55 51.8 °F 36.7 °F 29.7 in WNW 1 mph 2 mph 56% 0 in WeatherDisplay:10.37 W/m2 FEW
02:00 51.8 °F 36.7 °F 29.7 in SSE 2.3 mph 2.3 mph 56% 0 in WeatherDisplay:10.37 W/m2 FEW
02:04 51.8 °F 36.7 °F 29.7 in Calm   0.2 mph 56% 0 in WeatherDisplay:10.37 W/m2 CLR
02:10 51.8 °F 36.7 °F 29.7 in NE 1.2 mph 1.2 mph 56% 0 in WeatherDisplay:10.37 W/m2 CLR
02:15 51.8 °F 36.7 °F 29.7 in Calm   2 mph 56% 0 in WeatherDisplay:10.37 W/m2 CLR
02:19 51.8 °F 37.6 °F 29.7 in East 0.9 mph 0.9 mph 58% 0 in WeatherDisplay:10.37 W/m2 CLR
02:24 51.8 °F 37.6 °F 29.7 in East 2 mph 2 mph 58% 0 in WeatherDisplay:10.37 W/m2 CLR
02:29 51.8 °F 37.9 °F 29.7 in East 1.2 mph 1.2 mph 59% 0 in WeatherDisplay:10.37 W/m2 CLR
02:34 51.8 °F 37.9 °F 29.7 in ESE 2.3 mph 2.3 mph 59% 0 in WeatherDisplay:10.37 W/m2 CLR
02:39 51.8 °F 38.3 °F 29.7 in ESE 1.2 mph 1.2 mph 60% 0 in WeatherDisplay:10.37 W/m2 CLR
02:44 51.8 °F 38.3 °F 29.7 in ESE 1.2 mph 1.2 mph 60% 0 in WeatherDisplay:10.37 W/m2 CLR
02:50 50 °F 36.7 °F 29.7 in Calm   1 mph 60% 0 in WeatherDisplay:10.37 W/m2 CLR
02:55 50 °F 37 °F 29.7 in ESE 1.2 mph 1.2 mph 61% 0 in WeatherDisplay:10.37 W/m2 CLR
03:00 50 °F 37 °F 29.7 in East 2.3 mph 2.3 mph 61% 0 in WeatherDisplay:10.37 W/m2 CLR
03:05 50 °F 37.9 °F 29.7 in East 1 mph 2 mph 63% 0 in WeatherDisplay:10.37 W/m2 CLR
03:10 50 °F 37.9 °F 29.7 in East 0.9 mph 0.9 mph 63% 0 in WeatherDisplay:10.37 W/m2 CLR
03:15 50 °F 37.9 °F 29.7 in East 1.2 mph 1.2 mph 63% 0 in WeatherDisplay:10.37 W/m2 CLR
03:20 49.8 °F 37.8 °F 29.7 in East 3.5 mph 3.5 mph 63% 0 in WeatherDisplay:10.37 W/m2 CLR
03:25 49.8 °F 38.5 °F 29.7 in ENE 3.5 mph 3.5 mph 65% 0 in WeatherDisplay:10.37 W/m2 CLR
03:30 49.8 °F 38.5 °F 29.7 in East 3.5 mph 3.5 mph 65% 0 in WeatherDisplay:10.37 W/m2 CLR
03:35 49.8 °F 38.5 °F 29.7 in East 3.5 mph 3.5 mph 65% 0 in WeatherDisplay:10.37 W/m2 CLR
03:40 49.6 °F 38.3 °F 29.7 in East 3.5 mph 3.5 mph 65% 0 in WeatherDisplay:10.37 W/m2 CLR
03:45 49.3 °F 37.9 °F 29.7 in East 3.5 mph 3.5 mph 65% 0 in WeatherDisplay:10.37 W/m2 CLR
03:50 49.3 °F 38.5 °F 29.7 in ENE 2.3 mph 2.3 mph 66% 0 in WeatherDisplay:10.37 W/m2 CLR
03:55 48.9 °F 38.1 °F 29.7 in East 3.5 mph 3.5 mph 66% 0 in WeatherDisplay:10.37 W/m2 CLR
04:00 49.3 °F 38.5 °F 29.7 in ESE 3.5 mph 3.5 mph 66% 0 in WeatherDisplay:10.37 W/m2 CLR
04:05 49.6 °F 38.7 °F 29.7 in ESE 3.5 mph 3.5 mph 66% 0 in WeatherDisplay:10.37 W/m2 CLR
04:10 49.8 °F 38.8 °F 29.7 in ESE 4.9 mph 4.9 mph 66% 0 in WeatherDisplay:10.37 W/m2 CLR
04:15 50 °F 39 °F 29.7 in ESE 3.5 mph 3.5 mph 66% 0 in WeatherDisplay:10.37 W/m2 CLR
04:20 50 °F 39 °F 29.7 in ESE 4 mph 4 mph 66% 0 in WeatherDisplay:10.37 W/m2 CLR
04:25 50 °F 39 °F 29.7 in ESE 4 mph 4 mph 66% 0 in WeatherDisplay:10.37 W/m2 CLR
04:30 50 °F 39 °F 29.7 in ENE 3.5 mph 3.5 mph 66% 0 in WeatherDisplay:10.37 W/m2 CLR
04:35 50 °F 39 °F 29.7 in East 4 mph 4 mph 66% 0 in WeatherDisplay:10.37 W/m2 CLR
04:40 50 °F 39 °F 29.7 in ENE 4 mph 4 mph 66% 0 in WeatherDisplay:10.37 W/m2 CLR
04:45 50 °F 39 °F 29.7 in East 2.3 mph 2.9 mph 66% 0 in WeatherDisplay:10.37 W/m2 CLR
04:50 50 °F 39 °F 29.7 in East 3.5 mph 3.5 mph 66% 0 in WeatherDisplay:10.37 W/m2 CLR
04:55 50 °F 39.7 °F 29.7 in ESE 3.5 mph 3.5 mph 68% 0 in WeatherDisplay:10.37 W/m2 CLR
05:00 50 °F 39.7 °F 29.7 in NNE 2.9 mph 2.9 mph 68% 0 in WeatherDisplay:10.37 W/m2 CLR
05:05 50 °F 40.3 °F 29.7 in ESE 3.5 mph 3.5 mph 69% 0 in WeatherDisplay:10.37 W/m2 CLR
05:10 50 °F 40.3 °F 29.7 in East 2.3 mph 2.5 mph 69% 0 in WeatherDisplay:10.37 W/m2 CLR
05:15 50 °F 40.3 °F 29.7 in ESE 4.9 mph 4.9 mph 69% 0 in WeatherDisplay:10.37 W/m2 CLR
05:20 50 °F 40.3 °F 29.7 in ESE 5.8 mph 5.8 mph 69% 0 in WeatherDisplay:10.37 W/m2 CLR
05:25 50 °F 40.3 °F 29.7 in ESE 4.9 mph 4.9 mph 69% 0 in WeatherDisplay:10.37 W/m2 CLR
05:30 50 °F 40.3 °F 29.7 in ESE 6.9 mph 6.9 mph 69% 0 in WeatherDisplay:10.37 W/m2 CLR
05:35 50 °F 40.3 °F 29.7 in South 6.9 mph 6.9 mph 69% 0 in WeatherDisplay:10.37 W/m2 CLR
05:40 50 °F 40.3 °F 29.7 in ESE 4.6 mph 4.6 mph 69% 0 in WeatherDisplay:10.37 W/m2 CLR
05:45 50 °F 40.3 °F 29.7 in East 5.8 mph 5.8 mph 69% 0 in WeatherDisplay:10.37 W/m2 CLR
05:50 50 °F 40.3 °F 29.7 in East 8.1 mph 8.1 mph 69% 0 in WeatherDisplay:10.37 W/m2 CLR
05:55 50 °F 40.3 °F 29.7 in SSW 8.1 mph 8.1 mph 69% 0 in WeatherDisplay:10.37 W/m2 CLR
06:00 50 °F 40.6 °F 29.7 in SSE 3.5 mph 4 mph 70% 0 in WeatherDisplay:10.37 W/m2 CLR
06:05 50 °F 40.6 °F 29.7 in East 9.2 mph 9.2 mph 70% 0 in WeatherDisplay:10.37 W/m2 CLR
06:10 50 °F 40.6 °F 29.7 in SSE 5.8 mph 5.8 mph 70% 0 in WeatherDisplay:10.37 W/m2 CLR
06:15 50 °F 40.6 °F 29.7 in South 6.9 mph 6.9 mph 70% 0 in WeatherDisplay:10.37 W/m2 CLR
06:20 50 °F 40.6 °F 29.7 in SSE 9.2 mph 9.2 mph 70% 0 in WeatherDisplay:10.37 W/m2 CLR
06:25 50 °F 40.6 °F 29.7 in SSE 8.9 mph 8.9 mph 70% 0 in WeatherDisplay:10.37 W/m2 CLR
06:30 50 °F 41 °F 29.7 in ESE 4.9 mph 4.9 mph 71% 0 in WeatherDisplay:10.37 W/m2 CLR
06:35 50 °F 41 °F 29.7 in WSW 5.8 mph 5.8 mph 71% 0 in WeatherDisplay:10.37 W/m2 CLR
06:40 50 °F 41.7 °F 29.7 in SE 4 mph 4 mph 73% 0 in WeatherDisplay:10.37 W/m2 CLR
06:45 50 °F 41.7 °F 29.7 in SE 5.8 mph 5.8 mph 73% 0 in WeatherDisplay:10.37 W/m2 CLR
06:50 51.8 °F 43.3 °F 29.7 in South 4.6 mph 4.6 mph 73% 0 in WeatherDisplay:10.37 W/m2 CLR
06:55 51.8 °F 43.3 °F 29.7 in South 4 mph 4.5 mph 73% 0 in WeatherDisplay:10.37 W/m2 CLR
07:00 51.8 °F 43.3 °F 29.7 in SW 6 mph 6 mph 73% 0 in WeatherDisplay:10.37 W/m2 CLR
07:05 51.8 °F 43.3 °F 29.7 in SSE 5.8 mph 5.8 mph 73% 0 in WeatherDisplay:10.37 W/m2 CLR
07:10 51.8 °F 43.3 °F 29.7 in South 4.6 mph 4.6 mph 73% 0 in WeatherDisplay:10.37 W/m2 CLR
07:15 51.8 °F 43.3 °F 29.7 in ESE 4.6 mph 4.6 mph 73% 0 in WeatherDisplay:10.37 W/m2 CLR
07:20 51.8 °F 43.3 °F 29.7 in SE 3.5 mph 3.5 mph 73% 0 in WeatherDisplay:10.37 W/m2 CLR
07:25 51.8 °F 43.3 °F 29.7 in SSE 3.5 mph 3.5 mph 73% 0 in WeatherDisplay:10.37 W/m2 CLR
07:30 51.8 °F 43.3 °F 29.7 in South 6.9 mph 6.9 mph 73% 0 in WeatherDisplay:10.37 W/m2 CLR
07:35 53.6 °F 45.1 °F 29.7 in SE 4.6 mph 4.6 mph 73% 0 in WeatherDisplay:10.37 W/m2 CLR
07:40 53.6 °F 45.1 °F 29.7 in ESE 8.1 mph 8.1 mph 73% 0 in WeatherDisplay:10.37 W/m2 CLR
07:45 53.6 °F 45.5 °F 29.7 in South 6.9 mph 6.9 mph 74% 0 in WeatherDisplay:10.37 W/m2 CLR
07:50 53.6 °F 45.9 °F 29.7 in SE 4.6 mph 4.6 mph 75% 0 in WeatherDisplay:10.37 W/m2 CLR
07:55 53.6 °F 45.9 °F 29.7 in SE 11.5 mph 11.5 mph 75% 0 in WeatherDisplay:10.37 W/m2 CLR
08:00 51.8 °F 44.1 °F 29.7 in ESE 5.8 mph 5.8 mph 75% 0 in WeatherDisplay:10.37 W/m2 CLR
08:05 51.8 °F 44.1 °F 29.7 in SSE 4.9 mph 4.9 mph 75% 0 in WeatherDisplay:10.37 W/m2 CLR
08:10 51.8 °F 44.1 °F 29.7 in SE 3.5 mph 4.2 mph 75% 0 in WeatherDisplay:10.37 W/m2 CLR
08:15 53.6 °F 45.5 °F 29.7 in South 4.9 mph 4.9 mph 74% 0 in WeatherDisplay:10.37 W/m2 CLR
08:20 53.6 °F 45.5 °F 29.7 in South 4.9 mph 4.9 mph 74% 0 in WeatherDisplay:10.37 W/m2 CLR
08:25 53.6 °F 45.5 °F 29.7 in South 4.9 mph 4.9 mph 74% 0 in WeatherDisplay:10.37 W/m2 CLR
08:30 57.2 °F 47.5 °F 29.7 in South 8.1 mph 8.1 mph 70% 0 in WeatherDisplay:10.37 W/m2 CLR
08:35 57.2 °F 47.5 °F 29.7 in South 6.9 mph 6.9 mph 70% 0 in WeatherDisplay:10.37 W/m2 CLR
08:40 57.2 °F 47.5 °F 29.7 in SSE 6 mph 6 mph 70% 0 in WeatherDisplay:10.37 W/m2 CLR
08:45 57.2 °F 47.5 °F 29.7 in ESE 11.5 mph 11.5 mph 70% 0 in WeatherDisplay:10.37 W/m2 CLR
08:50 57.2 °F 47.5 °F 29.7 in SE 10.4 mph 10.4 mph 70% 0 in WeatherDisplay:10.37 W/m2 CLR
08:55 59 °F 49.3 °F 29.7 in ESE 8.1 mph 8.1 mph 70% 0 in WeatherDisplay:10.37 W/m2 CLR
09:00 59 °F 49.3 °F 29.7 in ESE 4.9 mph 5.1 mph 70% 0 in WeatherDisplay:10.37 W/m2 CLR
09:05 59 °F 49.3 °F 29.7 in ESE 6.9 mph 6.9 mph 70% 0 in WeatherDisplay:10.37 W/m2 CLR
09:10 59 °F 49.6 °F 29.7 in SSE 6 mph 6 mph 71% 0 in WeatherDisplay:10.37 W/m2 CLR
09:15 59 °F 49.3 °F 29.7 in ESE 6 mph 6 mph 70% 0 in WeatherDisplay:10.37 W/m2 CLR
09:20 59 °F 49.3 °F 29.7 in South 8.1 mph 8.1 mph 70% 0 in WeatherDisplay:10.37 W/m2 CLR
09:25 59 °F 49.3 °F 29.7 in ESE 5.8 mph 5.8 mph 70% 0 in WeatherDisplay:10.37 W/m2 CLR
09:30 60.8 °F 50.5 °F 29.7 in SSE 3.5 mph 4 mph 69% 0 in WeatherDisplay:10.37 W/m2 CLR
09:35 60.8 °F 50.5 °F 29.7 in SE 9.2 mph 9.2 mph 69% 0 in WeatherDisplay:10.37 W/m2 CLR
09:40 60.8 °F 50.5 °F 29.7 in ESE 10.1 mph 10.1 mph 69% 0 in WeatherDisplay:10.37 W/m2 CLR
09:41 60.8 °F 50.5 °F 29.7 in South 10.4 mph 10.4 mph 69% 0 in WeatherDisplay:10.37 W/m2 CLR
09:46 60.8 °F 50.5 °F 29.7 in ESE 9.2 mph 9.2 mph 69% 0 in WeatherDisplay:10.37 W/m2 CLR
09:51 60.8 °F 50.5 °F 29.7 in SE 6.9 mph 6.9 mph 69% 0 in WeatherDisplay:10.37 W/m2 CLR
09:56 60.8 °F 50.5 °F 29.7 in SSE 6 mph 6 mph 69% 0 in WeatherDisplay:10.37 W/m2 CLR
10:01 60.8 °F 50.5 °F 29.6 in SSE 8.1 mph 8.1 mph 69% 0 in WeatherDisplay:10.37 W/m2 CLR
10:06 62.6 °F 52 °F 29.6 in ESE 6.9 mph 6.9 mph 68% 0 in WeatherDisplay:10.37 W/m2 CLR
10:11 62.6 °F 52 °F 29.6 in ESE 6.9 mph 6.9 mph 68% 0 in WeatherDisplay:10.37 W/m2 CLR
10:16 62.6 °F 51.1 °F 29.6 in SE 8.9 mph 8.9 mph 66% 0 in WeatherDisplay:10.37 W/m2 CLR
10:21 62.6 °F 52 °F 29.6 in SSE 6.9 mph 6.9 mph 68% 0 in WeatherDisplay:10.37 W/m2 CLR
10:26 64.4 °F 52.9 °F 29.6 in SE 6 mph 6 mph 66% 0 in WeatherDisplay:10.37 W/m2 CLR
10:31 64.4 °F 52.9 °F 29.6 in SE 6.9 mph 6.9 mph 66% 0 in WeatherDisplay:10.37 W/m2 CLR
10:36 64.4 °F 52.3 °F 29.6 in SE 8.1 mph 8.1 mph 65% 0 in WeatherDisplay:10.37 W/m2 CLR
10:41 64.4 °F 52.3 °F 29.6 in East 11.5 mph 11.5 mph 65% 0 in WeatherDisplay:10.37 W/m2 CLR
10:46 64.4 °F 52.3 °F 29.6 in SE 4 mph 4.5 mph 65% 0 in WeatherDisplay:10.37 W/m2 CLR
10:51 64.4 °F 51.4 °F 29.6 in SSE 4.6 mph 4.6 mph 63% 0 in WeatherDisplay:10.37 W/m2 CLR
10:57 64.4 °F 51.4 °F 29.6 in South 6.9 mph 6.9 mph 63% 0 in WeatherDisplay:10.37 W/m2 CLR
11:02 66.2 °F 53.2 °F 29.6 in South 3.5 mph 3.8 mph 63% 0 in WeatherDisplay:10.37 W/m2 CLR
11:07 66.2 °F 53.2 °F 29.6 in SE 5.8 mph 5.8 mph 63% 0 in WeatherDisplay:10.37 W/m2 CLR
11:12 66.2 °F 52.3 °F 29.6 in SSW 4.6 mph 4.6 mph 61% 0 in WeatherDisplay:10.37 W/m2 CLR
11:17 66.2 °F 52 °F 29.6 in South 8.1 mph 8.1 mph 60% 0 in WeatherDisplay:10.37 W/m2 CLR
11:22 68 °F 54 °F 29.6 in SSE 4.6 mph 4.6 mph 61% 0 in WeatherDisplay:10.37 W/m2 CLR
11:27 69.8 °F 55.8 °F 29.6 in ESE 4.6 mph 4.6 mph 61% 0 in WeatherDisplay:10.37 W/m2 CLR
Juneau County Weather
Compliments of Weather Underground - 3 mb